oyunmoyun.com alexa rank chart, oyunmoyun.com alexa rank daily changes

oyunmoyun.com alexa rank chart, oyunmoyun.com alexa rank daily changes

oyunmoyun.com
Actual rank:
117 182

RANK HISTORY

Date Rank Diff
2017/12/16 117 182 -336
2017/12/15 117 518 -1 060
2017/12/14 118 578 +286
2017/12/13 118 292 +2 435
2017/12/12 115 857 -6 882
2017/12/11 122 739 -2 731
2017/12/10 125 470 -970
2017/12/09 126 440 +1 120
2017/12/08 125 320 -254
2017/12/07 125 574 +3 288
2017/12/06 122 286 +3 609
2017/12/05 118 677 -3 519
2017/12/04 122 196 -2 962
2017/12/03 125 158 -1 155
2017/12/02 126 313 -867
2017/12/01 127 180 -849
2017/11/30 128 029 +751
2017/11/29 127 278 +1 209
2017/11/28 126 069 -4 896
2017/11/27 130 965 -3 192
2017/11/26 134 157 -3 679
2017/11/25 137 836 -463
2017/11/24 138 299 -803
2017/11/23 139 102 +2 336
2017/11/22 136 766 -101
2017/11/21 136 867 -2 980
2017/11/20 139 847 -5 612
2017/11/19 145 459 +1 201
2017/11/18 144 258 -3 032
2017/11/17 147 290 +991
2017/11/16 146 299 +1 925
2017/11/15 144 374 +1 597
2017/11/14 142 777 -1 547
2017/11/13 144 324 -3 777
2017/11/12 148 101 -525
2017/11/11 148 626 -1 498
2017/11/10 150 124 +3 773
2017/11/09 146 351 +1 244
2017/11/08 145 107 +639
2017/11/07 144 468 -5 084
2017/11/06 149 552 -5 757
2017/11/05 155 309 +2 503
2017/11/04 152 806 +2 949
2017/11/03 149 857 +1 763
2017/11/02 148 094 +2 597
2017/11/01 145 497 +1 667
2017/10/31 143 830 -949
2017/10/30 144 779 -3 731
2017/10/29 148 510 -2 260
2017/10/28 150 770 -1 050
2017/10/27 151 820 -1 314
2017/10/26 153 134 +1 508
2017/10/25 151 626 +3 117
2017/10/24 148 509 -17
2017/10/23 148 526 -974
2017/10/22 149 500 -3 455
2017/10/21 152 955 -1 702
2017/10/20 154 657 -1 274
2017/10/19 155 931 -1 240
2017/10/18 157 171 +1 392
2017/10/17 155 779

WIDGET FOR YOUR SITE

DOMAINS WITH THE NEAREST RANK

Domain Rank
heroesworld.ru 117 177
psk.hr 117 178
southwark.gov.uk 117 179
puls-planeta.ru 117 180
impay.co.kr 117 181
oyunmoyun.com 117 182
eyewitnesstohistory.com 117 183
mmgp.space 117 184
omeglevideo.chat 117 185
photobox.ie 117 186
banpt.or.id 117 187

DOMAINS WITH THE NEAREST RANK BY TLD .com

Domain Rank
digiket.com 117 165
vetprep.com 117 168
readers.com 117 169
macsintuition.com 117 170
xxxtubeset.com 117 173
oyunmoyun.com 117 182
eyewitnesstohistory.com 117 183
ks5u.com 117 188
xwebporn.com 117 189
limesonline.com 117 192
spreeder.com 117 194